Portada
METAR-TAF:

METAR-TAF

Aeroports :

Phrae, Tailàndia

latitud: 18-10N, longitud: 100-10E, altitud: 161 m

Observació

L'informe es va fer fa 55 minuts, a les 08:00 UTC
Vent 4 kt del Sud/Sud-Oest, variant entre Est/Sud-Est i Oest
Temperatura 39°C
Humitat 40%
Pressió 1006 hPa
Visibilitat 10 km o més
Escasses núvols a una alçada de 2200 ft

METAR: VTCP 230800Z 21004KT 120V260 9999 FEW022 39/23 Q1006 NOSIG

Hora: 15:55 (08:55 UTC)

Pronòstic

L'informe es va fer fa 3 hores i 55 minuts, a les 05:00 UTC
Pronòstic vàlid del 23 a les 06 UTC al 24 a les 06 UTC
Vent 5 kt del Sud-Oest
Visibilitat 10 km o més
Escasses núvols a una alçada de 2500 ft
Evolucionant progressivament
l' 23 a les 21 UTC al 23 a les 23 UTC
Visibilitat: 4000 m
boirina
Evolucionant progressivament
l' 24 a les 01 UTC al 24 a les 03 UTC
Visibilitat 10 km o més

TAF: VTCP 230500Z 2306/2406 22005KT 9999 FEW025 BECMG 2321/2323 4000 BR BECMG 2401/2403 9999 NSW

Observacions i pronòstics meteorològics de més de 4000 aeroports (METAR i TAF).

Les estacions disponibles són els punts grocs i vermells al mapa.

Posi el ratolí al punt desitjat per veure el nom de l'estació.

Feu clic per veure les observacions i els pronòstics meteorològics.

Per canviar el mapa: feu clic els botons verds amb una creu de color negre per apropar; al botó verd amb un guió per allunyar la imatge; o en les fletxes verdes per a mapes adjacents.


METAR-TAF: